createdAt,value
2018-06-20T00:01:57.525Z,101816.76
2018-06-20T00:04:25.272Z,101817.70
2018-06-20T00:06:54.197Z,101818.98
2018-06-20T00:09:21.933Z,101818.95
2018-06-20T00:11:50.848Z,101819.64
2018-06-20T00:14:19.183Z,101820.81
2018-06-20T00:16:47.509Z,101823.84
2018-06-20T00:19:15.828Z,101816.70
2018-06-20T00:21:44.176Z,101821.59
2018-06-20T00:24:12.506Z,101819.29
2018-06-20T00:26:40.306Z,101822.31
2018-06-20T00:29:09.228Z,101824.14
2018-06-20T00:31:37.554Z,101822.41
2018-06-20T00:34:05.886Z,101818.45
2018-06-20T00:36:34.277Z,101817.77
2018-06-20T00:39:02.028Z,101816.43
2018-06-20T00:41:30.930Z,101819.17
2018-06-20T00:43:59.271Z,101819.98
2018-06-20T00:46:27.609Z,101814.24
2018-06-20T00:48:55.938Z,101811.20
2018-06-20T00:51:23.685Z,101814.48
2018-06-20T00:53:52.598Z,101825.25
2018-06-20T00:56:20.943Z,101827.23
2018-06-20T00:58:49.276Z,101826.72
2018-06-20T01:01:17.604Z,101837.75
2018-06-20T01:03:45.529Z,101833.06
2018-06-20T01:06:14.266Z,101840.17
2018-06-20T01:08:42.590Z,101835.45
2018-06-20T01:11:10.906Z,101843.57
2018-06-20T01:13:39.243Z,101836.56
2018-06-20T01:16:07.585Z,101836.49
2018-06-20T01:18:35.345Z,101838.84
2018-06-20T01:21:03.679Z,101839.97
2018-06-20T01:23:32.813Z,101844.50
2018-06-20T01:26:00.925Z,101840.30
2018-06-20T01:28:29.253Z,101847.19
2018-06-20T01:30:57.595Z,101853.66
2018-06-20T01:33:25.915Z,101849.80
2018-06-20T01:35:54.250Z,101851.56
2018-06-20T01:38:22.621Z,101851.55
2018-06-20T01:40:50.403Z,101851.27
2018-06-20T01:43:19.322Z,101857.70
2018-06-20T01:45:47.689Z,101856.30
2018-06-20T01:48:15.436Z,101855.45
2018-06-20T01:50:44.343Z,101861.38
2018-06-20T01:53:12.090Z,101864.67
2018-06-20T01:55:40.574Z,101865.97
2018-06-20T01:58:09.433Z,101868.22
2018-06-20T02:00:37.757Z,101874.09
2018-06-20T02:03:06.095Z,101873.40
2018-06-20T02:05:34.422Z,101876.77
2018-06-20T02:08:02.753Z,101882.33
2018-06-20T02:10:30.503Z,101886.33
2018-06-20T02:13:02.313Z,101887.59
2018-06-20T02:15:31.266Z,101887.13
2018-06-20T02:17:59.590Z,101885.94
2018-06-20T02:20:27.923Z,101890.95
2018-06-20T02:22:56.259Z,101881.96
2018-06-20T02:25:24.824Z,101893.93
2018-06-20T02:27:52.923Z,101889.02
2018-06-20T02:30:21.292Z,101891.56
2018-06-20T02:32:49.480Z,101893.10
2018-06-20T02:35:18.393Z,101895.11
2018-06-20T02:37:46.139Z,101901.67
2018-06-20T02:40:15.117Z,101902.42
2018-06-20T02:42:43.446Z,101907.70
2018-06-20T02:45:11.780Z,101911.66
2018-06-20T02:47:40.128Z,101916.46
2018-06-20T02:50:09.419Z,101919.05
2018-06-20T02:52:37.844Z,101917.91
2018-06-20T02:55:05.510Z,101914.03
2018-06-20T02:57:34.429Z,101911.42
2018-06-20T03:00:02.750Z,101907.38
2018-06-20T03:02:31.071Z,101913.81
2018-06-20T03:04:59.610Z,101912.45
2018-06-20T03:07:27.912Z,101915.84
2018-06-20T03:09:56.252Z,101911.81
2018-06-20T03:12:24.621Z,101914.90
2018-06-20T03:14:52.959Z,101917.41
2018-06-20T03:17:20.701Z,101917.64
2018-06-20T03:19:49.620Z,101923.29
2018-06-20T03:22:17.996Z,101923.55
2018-06-20T03:24:45.695Z,101927.48
2018-06-20T03:27:14.658Z,101928.31
2018-06-20T03:29:42.984Z,101931.75
2018-06-20T03:32:11.315Z,101937.55
2018-06-20T03:34:39.637Z,101925.28
2018-06-20T03:37:07.969Z,101935.32
2018-06-20T03:39:36.295Z,101933.67
2018-06-20T03:42:04.553Z,101932.34
2018-06-20T03:44:32.396Z,101935.45
2018-06-20T03:47:01.317Z,101934.53
2018-06-20T03:49:29.051Z,101934.55
2018-06-20T03:51:57.960Z,101939.36
2018-06-20T03:54:26.688Z,101934.92
2018-06-20T03:56:55.899Z,101942.81
2018-06-20T03:59:23.631Z,101939.61
2018-06-20T04:01:52.537Z,101936.48
2018-06-20T04:04:20.896Z,101944.45
2018-06-20T04:06:49.255Z,101949.75
2018-06-20T04:09:17.584Z,101944.95
2018-06-20T04:11:45.917Z,101949.06
2018-06-20T04:14:14.241Z,101948.22
2018-06-20T04:16:42.000Z,101949.66
2018-06-20T04:19:10.898Z,101949.86
2018-06-20T04:21:39.248Z,101951.63
2018-06-20T04:24:07.615Z,101945.84
2018-06-20T04:26:35.976Z,101953.95
2018-06-20T04:29:04.367Z,101955.14
2018-06-20T04:31:32.632Z,101950.61
2018-06-20T04:34:01.812Z,101963.85
2018-06-20T04:36:28.861Z,101960.36
2018-06-20T04:38:57.641Z,101960.31
2018-06-20T04:41:25.971Z,101961.03
2018-06-20T04:43:53.776Z,101959.28
2018-06-20T04:46:22.132Z,101959.02
2018-06-20T04:48:50.456Z,101964.30
2018-06-20T04:51:19.370Z,101956.41
2018-06-20T04:53:47.722Z,101960.62
2018-06-20T04:56:15.450Z,101958.66
2018-06-20T04:58:44.578Z,101965.59
2018-06-20T05:01:12.350Z,101967.72
2018-06-20T05:03:41.259Z,101969.89
2018-06-20T05:06:09.037Z,101978.09
2018-06-20T05:08:37.937Z,101962.58
2018-06-20T05:11:05.691Z,101963.09
2018-06-20T05:13:34.625Z,101970.22
2018-06-20T05:16:02.951Z,101965.14
2018-06-20T05:18:31.313Z,101968.98
2018-06-20T05:20:59.618Z,101968.41
2018-06-20T05:23:28.002Z,101965.21
2018-06-20T05:25:55.707Z,101969.93
2018-06-20T05:28:24.635Z,101965.36
2018-06-20T05:30:52.964Z,101974.87
2018-06-20T05:33:20.725Z,101977.16
2018-06-20T05:35:49.646Z,101978.23
2018-06-20T05:38:17.977Z,101981.13
2018-06-20T05:40:46.319Z,101985.98
2018-06-20T05:43:14.647Z,101984.56
2018-06-20T05:45:42.512Z,101994.99
2018-06-20T05:48:11.013Z,101976.37
2018-06-20T05:50:39.979Z,101986.47
2018-06-20T05:53:08.413Z,101980.38
2018-06-20T05:55:36.717Z,101976.21
2018-06-20T05:58:04.550Z,101976.21
2018-06-20T06:00:36.716Z,101983.31
2018-06-20T06:03:04.219Z,101983.94
2018-06-20T06:05:32.572Z,101986.47
2018-06-20T06:08:00.900Z,101983.73
2018-06-20T06:10:28.651Z,101982.89
2018-06-20T06:12:57.559Z,101977.41
2018-06-20T06:15:25.893Z,101983.21
2018-06-20T06:17:53.642Z,101965.08
2018-06-20T06:20:22.581Z,101975.01
2018-06-20T06:22:50.936Z,101974.62
2018-06-20T06:25:19.336Z,101982.77
2018-06-20T06:27:47.662Z,101978.82
2018-06-20T06:30:15.983Z,101980.58
2018-06-20T06:32:44.325Z,101984.84
2018-06-20T06:35:12.641Z,101986.12
2018-06-20T06:37:41.455Z,101990.73
2018-06-20T06:40:09.745Z,101993.27
2018-06-20T06:42:38.660Z,101982.59
2018-06-20T06:45:07.014Z,101974.75
2018-06-20T06:47:34.861Z,101979.86
2018-06-20T06:50:03.844Z,101977.50
2018-06-20T06:52:32.187Z,101987.92
2018-06-20T06:55:00.532Z,101985.02
2018-06-20T06:57:28.863Z,101990.13
2018-06-20T06:59:57.179Z,101987.25
2018-06-20T07:02:25.527Z,101988.95
2018-06-20T07:04:53.860Z,101993.70
2018-06-20T07:07:21.634Z,101988.88
2018-06-20T07:09:50.561Z,101995.05
2018-06-20T07:12:18.887Z,101998.84
2018-06-20T07:14:46.635Z,102012.74
2018-06-20T07:17:14.976Z,102002.32
2018-06-20T07:19:43.931Z,101995.21
2018-06-20T07:22:12.260Z,101980.56
2018-06-20T07:24:40.598Z,101983.00
2018-06-20T07:27:08.914Z,101977.99
2018-06-20T07:29:37.481Z,101979.35
2018-06-20T07:32:05.015Z,101999.00
2018-06-20T07:34:34.009Z,101989.88
2018-06-20T07:37:02.269Z,101986.55
2018-06-20T07:39:30.603Z,101983.70
2018-06-20T07:41:58.927Z,101987.55
2018-06-20T07:44:27.272Z,101984.39
2018-06-20T07:46:56.397Z,101975.53
2018-06-20T07:49:24.148Z,101970.87
2018-06-20T07:51:53.054Z,101970.63
2018-06-20T07:54:21.386Z,101980.55
2018-06-20T07:56:49.730Z,101971.76
2018-06-20T07:59:18.049Z,101985.76
2018-06-20T08:01:54.858Z,101973.89
2018-06-20T08:04:25.098Z,101974.91
2018-06-20T08:06:52.828Z,101981.64
2018-06-20T08:09:27.353Z,101964.57
2018-06-20T08:12:01.196Z,101979.98
2018-06-20T08:14:35.244Z,101968.88
2018-06-20T08:17:03.619Z,101957.73
2018-06-20T08:19:32.864Z,101962.75
2018-06-20T08:22:01.192Z,101973.73
2018-06-20T08:24:28.938Z,101960.00
2018-06-20T08:26:57.845Z,101963.66
2018-06-20T08:29:25.591Z,101967.52
2018-06-20T08:31:54.512Z,101943.36
2018-06-20T08:34:23.100Z,101951.55
2018-06-20T08:36:51.248Z,101948.17
2018-06-20T08:39:21.079Z,101952.58
2018-06-20T08:41:49.593Z,101947.20
2018-06-20T08:44:17.933Z,101951.17
2018-06-20T08:46:46.250Z,101957.73
2018-06-20T08:49:14.588Z,101947.53
2018-06-20T08:51:42.915Z,101954.76
2018-06-20T08:54:11.239Z,101952.15
2018-06-20T08:56:39.791Z,101952.59
2018-06-20T08:59:08.842Z,101956.58
2018-06-20T09:01:37.186Z,101954.41
2018-06-20T09:04:11.494Z,101945.96
2018-06-20T09:06:40.067Z,101943.47
2018-06-20T09:09:13.791Z,101959.13
2018-06-20T09:11:43.019Z,101955.20
2018-06-20T09:14:11.325Z,101955.27
2018-06-20T09:16:45.346Z,101950.50
2018-06-20T09:19:15.893Z,101942.20
2018-06-20T09:21:44.908Z,101951.80
2018-06-20T09:24:13.234Z,101943.30
2018-06-20T09:26:41.733Z,101949.63
2018-06-20T09:29:09.415Z,101945.42
2018-06-20T09:31:37.748Z,101939.10
2018-06-20T09:34:06.646Z,101946.20
2018-06-20T09:36:34.968Z,101940.31
2018-06-20T09:39:03.324Z,101943.52
2018-06-20T09:41:31.672Z,101933.78
2018-06-20T09:43:59.989Z,101933.72
2018-06-20T09:46:40.294Z,101940.91
2018-06-20T09:49:01.188Z,101952.25
2018-06-20T09:51:30.619Z,101946.94
2018-06-20T09:53:58.354Z,101938.69
2018-06-20T09:56:27.257Z,101935.51
2018-06-20T09:58:55.004Z,101937.52
2018-06-20T10:01:29.712Z,101937.73
2018-06-20T10:04:03.517Z,101936.34
2018-06-20T10:06:37.408Z,101931.37
2018-06-20T10:09:05.738Z,101926.25
2018-06-20T10:11:34.078Z,101917.14
2018-06-20T10:14:02.443Z,101919.22
2018-06-20T10:16:31.682Z,101920.12
2018-06-20T10:19:01.420Z,101918.17
2018-06-20T10:21:29.730Z,101911.81
2018-06-20T10:23:58.001Z,101914.34
2018-06-20T10:26:28.600Z,101912.03
2018-06-20T10:28:56.919Z,101916.28
2018-06-20T10:31:25.481Z,101915.16
2018-06-20T10:33:53.581Z,101907.30
2018-06-20T10:36:21.908Z,101910.25
2018-06-20T10:38:51.590Z,101901.47
2018-06-20T10:41:18.028Z,101898.09
2018-06-20T10:43:46.919Z,101899.98
2018-06-20T10:46:14.746Z,101898.56
2018-06-20T10:48:45.523Z,101903.83
2018-06-20T10:51:14.722Z,101895.69
2018-06-20T10:53:43.925Z,101897.22
2018-06-20T10:56:12.032Z,101900.31
2018-06-20T10:58:42.091Z,101892.93
2018-06-20T11:01:16.501Z,101888.56
2018-06-20T11:03:44.825Z,101913.11
2018-06-20T11:06:15.070Z,101893.89
2018-06-20T11:08:49.958Z,101881.94
2018-06-20T11:11:23.266Z,101887.73
2018-06-20T11:13:51.749Z,101882.71
2018-06-20T11:16:19.481Z,101877.13
2018-06-20T11:18:47.816Z,101881.36
2018-06-20T11:21:16.726Z,101873.41
2018-06-20T11:23:45.047Z,101867.86
2018-06-20T11:26:13.377Z,101880.87
2018-06-20T11:28:41.818Z,101873.31
2018-06-20T11:31:10.373Z,101879.11
2018-06-20T11:33:38.681Z,101872.33
2018-06-20T11:36:07.557Z,101869.33
2018-06-20T11:38:35.894Z,101868.53
2018-06-20T11:41:05.131Z,101884.37
2018-06-20T11:43:33.453Z,101870.73
2018-06-20T11:46:01.790Z,101864.77
2018-06-20T11:48:30.121Z,101871.63
2018-06-20T11:50:57.862Z,101857.42
2018-06-20T11:53:26.775Z,101861.68
2018-06-20T11:55:55.214Z,101872.69
2018-06-20T11:58:23.518Z,101874.05
2018-06-20T12:00:51.270Z,101858.51
2018-06-20T12:03:20.517Z,101857.66
2018-06-20T12:05:51.832Z,101863.01
2018-06-20T12:08:26.351Z,101851.11
2018-06-20T12:10:56.627Z,101850.90
2018-06-20T12:13:25.932Z,101865.88
2018-06-20T12:16:00.000Z,101854.72
2018-06-20T12:18:33.939Z,101856.10
2018-06-20T12:21:07.229Z,101850.75
2018-06-20T12:23:41.703Z,101849.59
2018-06-20T12:26:15.735Z,101852.81
2018-06-20T12:28:48.990Z,101854.00
2018-06-20T12:31:25.190Z,101856.91
2018-06-20T12:33:59.330Z,101853.73
2018-06-20T12:36:34.725Z,101845.91
2018-06-20T12:39:04.937Z,101839.17
2018-06-20T12:41:30.910Z,101860.75
2018-06-20T12:44:06.636Z,101850.64
2018-06-20T12:46:36.434Z,101851.41
2018-06-20T12:49:05.188Z,101847.80
2018-06-20T12:51:33.683Z,101845.09
2018-06-20T12:54:02.023Z,101843.35
2018-06-20T12:56:30.407Z,101839.48
2018-06-20T12:58:58.157Z,101841.33
2018-06-20T13:01:27.063Z,101833.64
2018-06-20T13:03:56.462Z,101831.19
2018-06-20T13:06:24.770Z,101832.11
2018-06-20T13:11:32.273Z,101831.25
2018-06-20T13:14:00.600Z,101836.39
2018-06-20T13:16:28.935Z,101828.20
2018-06-20T13:18:57.269Z,101827.89
2018-06-20T13:21:25.061Z,101820.64
2018-06-20T13:45:17.377Z,101796.68
2018-06-20T13:47:50.553Z,101794.59
2018-06-20T13:50:18.915Z,101788.91
2018-06-20T13:52:47.270Z,101795.13
2018-06-20T13:55:15.604Z,101787.77
2018-06-20T13:57:44.014Z,101797.75
2018-06-20T14:00:15.556Z,101786.53
2018-06-20T14:02:43.987Z,101779.72
2018-06-20T14:05:12.352Z,101785.96
2018-06-20T14:07:41.700Z,101781.78
2018-06-20T14:10:11.065Z,101783.66
2018-06-20T14:12:39.716Z,101766.42
2018-06-20T14:15:09.778Z,101758.06
2018-06-20T14:17:38.176Z,101767.82
2018-06-20T14:20:07.543Z,101770.34
2018-06-20T14:22:42.224Z,101766.52
2018-06-20T14:25:12.299Z,101758.55
2018-06-20T14:27:40.304Z,101756.59
2018-06-20T14:30:14.679Z,101746.75
2018-06-20T14:32:57.101Z,101750.90
2018-06-20T14:44:18.195Z,101745.05
2018-06-20T14:46:54.414Z,101728.92
2018-06-20T14:49:23.648Z,101724.44
2018-06-20T14:51:52.192Z,101727.70
2018-06-20T14:54:23.366Z,101727.14
2018-06-20T14:56:56.466Z,101723.54
2018-06-20T14:59:26.375Z,101721.88
2018-06-20T15:01:57.215Z,101711.70
2018-06-20T15:04:28.910Z,101717.06
2018-06-20T15:06:57.283Z,101716.02
2018-06-20T15:12:34.078Z,101710.64
2018-06-20T15:15:09.859Z,101707.03
2018-06-20T15:18:16.846Z,101696.56
2018-06-20T15:20:36.666Z,101704.84
2018-06-20T15:23:08.843Z,101692.19
2018-06-20T15:25:34.535Z,101699.02
2018-06-20T15:28:07.004Z,101690.77
2018-06-20T15:30:36.142Z,101694.02
2018-06-20T15:33:04.652Z,101693.69
2018-06-20T15:35:41.863Z,101688.16
2018-06-20T15:41:12.702Z,101685.81
2018-06-20T15:43:42.688Z,101687.02
2018-06-20T15:46:10.120Z,101685.71
2018-06-20T15:48:38.278Z,101685.84
2018-06-20T15:51:06.779Z,101678.18
2018-06-20T15:53:36.226Z,101678.56
2018-06-20T15:56:05.118Z,101677.94
2018-06-20T15:58:33.598Z,101674.00
2018-06-20T16:01:02.030Z,101670.50
2018-06-20T16:03:32.660Z,101665.19
2018-06-20T16:06:01.042Z,101665.32
2018-06-20T16:08:29.361Z,101659.95
2018-06-20T16:10:57.695Z,101660.02
2018-06-20T16:13:26.013Z,101660.44
2018-06-20T16:15:54.711Z,101653.86
2018-06-20T16:18:22.988Z,101649.75
2018-06-20T16:20:57.334Z,101654.19
2018-06-20T16:23:31.731Z,101648.74
2018-06-20T16:26:00.083Z,101643.34
2018-06-20T16:28:35.103Z,101635.64
2018-06-20T16:31:02.170Z,101633.23
2018-06-20T16:33:31.100Z,101628.84
2018-06-20T16:35:59.428Z,101628.23
2018-06-20T16:38:27.175Z,101627.45
2018-06-20T16:40:56.927Z,101621.44
2018-06-20T16:43:25.283Z,101619.47
2018-06-20T16:45:53.835Z,101621.83
2018-06-20T16:48:21.934Z,101623.63
2018-06-20T16:50:50.261Z,101618.09
2018-06-20T16:53:18.363Z,101618.21
2018-06-20T16:55:46.915Z,101622.38
2018-06-20T16:58:15.241Z,101613.70
2018-06-20T17:00:46.064Z,101615.87
2018-06-20T17:08:32.974Z,101610.67
2018-06-20T17:11:00.497Z,101608.86
2018-06-20T17:13:31.579Z,101608.14
2018-06-20T17:16:00.614Z,101611.45
2018-06-20T17:18:30.925Z,101611.20
2018-06-20T17:21:00.154Z,101608.25
2018-06-20T17:23:28.627Z,101607.78
2018-06-20T17:25:56.369Z,101603.35
2018-06-20T17:28:25.280Z,101598.20
2018-06-20T17:30:53.097Z,101601.81
2018-06-20T17:33:21.970Z,101596.17
2018-06-20T17:35:50.363Z,101595.95
2018-06-20T17:38:18.089Z,101603.52
2018-06-20T17:40:46.979Z,101595.25
2018-06-20T17:43:15.379Z,101587.78
2018-06-20T17:45:43.093Z,101589.16
2018-06-20T17:48:12.014Z,101578.41
2018-06-20T17:50:40.367Z,101576.08
2018-06-20T17:53:08.692Z,101568.12
2018-06-20T17:55:38.268Z,101567.42
2018-06-20T17:58:06.134Z,101564.06
2018-06-20T18:00:35.050Z,101566.84
2018-06-20T18:03:03.596Z,101568.46
2018-06-20T18:05:33.680Z,101560.61
2018-06-20T18:08:03.927Z,101564.80
2018-06-20T18:10:48.926Z,101555.84
2018-06-20T18:13:17.247Z,101556.59
2018-06-20T18:15:46.991Z,101556.05
2018-06-20T18:18:15.898Z,101556.84
2018-06-20T18:20:44.981Z,101556.48
2018-06-20T18:23:13.582Z,101562.33
2018-06-20T18:25:41.685Z,101562.22
2018-06-20T18:28:11.674Z,101566.91
2018-06-20T18:30:39.420Z,101566.73
2018-06-20T18:33:07.771Z,101570.74
2018-06-20T18:35:36.663Z,101569.75
2018-06-20T18:38:05.037Z,101569.72
2018-06-20T18:40:33.594Z,101563.83
2018-06-20T18:43:01.742Z,101565.41
2018-06-20T18:45:31.520Z,101566.69
2018-06-20T18:48:00.513Z,101568.75
2018-06-20T18:50:28.607Z,101562.22
2018-06-20T18:52:56.942Z,101564.96
2018-06-20T18:55:25.298Z,101560.80
2018-06-20T18:57:53.608Z,101554.03
2018-06-20T19:03:41.366Z,101546.53
2018-06-20T19:06:46.817Z,101550.41
2018-06-20T19:09:05.758Z,101550.80
2018-06-20T19:11:33.815Z,101549.43
2018-06-20T19:14:02.204Z,101547.41
2018-06-20T19:16:30.529Z,101546.42
2018-06-20T19:18:58.878Z,101539.77
2018-06-20T19:21:27.272Z,101542.90
2018-06-20T19:23:55.566Z,101544.59
2018-06-20T19:26:23.900Z,101543.35
2018-06-20T19:28:52.237Z,101533.99
2018-06-20T19:31:19.998Z,101540.39
2018-06-20T19:33:48.916Z,101536.77
2018-06-20T19:36:17.282Z,101533.28
2018-06-20T19:38:45.933Z,101534.10
2018-06-20T19:41:14.035Z,101529.68
2018-06-20T19:43:42.398Z,101526.67
2018-06-20T19:46:11.284Z,101526.69
2018-06-20T19:48:39.649Z,101527.78
2018-06-20T19:51:07.461Z,101525.51
2018-06-20T19:53:36.380Z,101520.81
2018-06-20T19:56:04.724Z,101524.61
2018-06-20T19:58:33.058Z,101515.27
2018-06-20T20:01:01.388Z,101513.99
2018-06-20T20:03:29.169Z,101511.72
2018-06-20T20:05:58.069Z,101505.50
2018-06-20T20:08:26.490Z,101500.88
2018-06-20T20:10:54.230Z,101501.48
2018-06-20T20:13:24.161Z,101498.06
2018-06-20T20:15:51.817Z,101496.62
2018-06-20T20:18:20.155Z,101491.52
2018-06-20T20:20:48.637Z,101487.10
2018-06-20T20:23:16.973Z,101482.66
2018-06-20T20:25:44.738Z,101481.30
2018-06-20T20:28:13.689Z,101479.86
2018-06-20T20:30:42.020Z,101476.93
2018-06-20T20:33:13.423Z,101474.98
2018-06-20T20:35:46.826Z,101468.08
2018-06-20T20:38:15.289Z,101466.67
2018-06-20T20:40:43.602Z,101462.41
2018-06-20T20:43:13.335Z,101453.75
2018-06-20T20:45:40.605Z,101458.30
2018-06-20T20:48:09.715Z,101457.97
2018-06-20T20:50:37.169Z,101453.45
2018-06-20T20:53:05.517Z,101447.21
2018-06-20T20:55:33.947Z,101447.13
2018-06-20T20:58:01.653Z,101448.19
2018-06-20T21:00:30.656Z,101448.90
2018-06-20T21:02:58.995Z,101447.23
2018-06-20T21:05:27.399Z,101441.38
2018-06-20T21:07:55.769Z,101439.69
2018-06-20T21:10:24.602Z,101438.45
2018-06-20T21:12:53.005Z,101432.47
2018-06-20T21:15:20.697Z,101431.82
2018-06-20T21:17:49.615Z,101427.66
2018-06-20T21:20:19.333Z,101428.02
2018-06-20T21:22:47.746Z,101424.80
2018-06-20T21:25:15.508Z,101420.97
2018-06-20T21:27:45.827Z,101420.52
2018-06-20T21:30:12.927Z,101419.19
2018-06-20T21:32:41.739Z,101416.69
2018-06-20T21:35:12.173Z,101410.25
2018-06-20T21:37:38.127Z,101405.16
2018-06-20T21:40:05.881Z,101401.45
2018-06-20T21:42:34.249Z,101395.12
2018-06-20T21:45:03.174Z,101391.36
2018-06-20T21:47:30.931Z,101391.58
2018-06-20T21:49:59.858Z,101384.69
2018-06-20T21:52:28.192Z,101381.53
2018-06-20T21:54:55.951Z,101377.88
2018-06-20T21:57:24.870Z,101378.44
2018-06-20T21:59:52.622Z,101374.98
2018-06-20T22:02:20.958Z,101375.83
2018-06-20T22:04:49.915Z,101368.70
2018-06-20T22:07:18.241Z,101366.58
2018-06-20T22:09:45.996Z,101357.88
2018-06-20T22:12:14.370Z,101358.99
2018-06-20T22:14:43.280Z,101356.97
2018-06-20T22:17:11.066Z,101353.54
2018-06-20T22:19:39.980Z,101348.00
2018-06-20T22:22:08.305Z,101348.63
2018-06-20T22:24:36.640Z,101349.72
2018-06-20T22:27:04.971Z,101344.07
2018-06-20T22:29:33.317Z,101338.34
2018-06-20T22:32:01.078Z,101332.83
2018-06-20T22:34:30.001Z,101332.68
2018-06-20T22:36:58.351Z,101327.84
2018-06-20T22:39:26.122Z,101320.91
2018-06-20T22:41:55.028Z,101318.23
2018-06-20T22:44:23.377Z,101320.28
2018-06-20T22:46:51.115Z,101312.87
2018-06-20T22:49:20.027Z,101311.08
2018-06-20T22:51:48.353Z,101303.44
2018-06-20T22:54:16.122Z,101306.12
2018-06-20T22:56:45.021Z,101300.22
2018-06-20T22:59:12.765Z,101297.06
2018-06-20T23:01:41.700Z,101294.20
2018-06-20T23:04:10.021Z,101293.71
2018-06-20T23:06:37.765Z,101288.98
2018-06-20T23:09:06.696Z,101281.73
2018-06-20T23:11:34.437Z,101283.62
2018-06-20T23:14:03.379Z,101283.61
2018-06-20T23:16:31.714Z,101277.94
2018-06-20T23:19:00.060Z,101278.63
2018-06-20T23:21:28.615Z,101268.78
2018-06-20T23:23:56.716Z,101268.59
2018-06-20T23:26:25.184Z,101269.70
2018-06-20T23:28:53.516Z,101268.78
2018-06-20T23:31:22.072Z,101267.13
2018-06-20T23:33:49.578Z,101268.17
2018-06-20T23:36:18.489Z,101265.52
2018-06-20T23:38:46.821Z,101260.35
2018-06-20T23:41:14.570Z,101261.42
2018-06-20T23:43:43.512Z,101258.18
2018-06-20T23:46:11.893Z,101250.61
2018-06-20T23:48:39.645Z,101251.22
2018-06-20T23:51:08.548Z,101248.69
2018-06-20T23:53:36.875Z,101244.76
2018-06-20T23:56:04.618Z,101244.20
2018-06-20T23:58:33.529Z,101237.30
